createdAt,value
2022-12-01T00:04:24.817Z,-5.08
2022-12-01T00:09:46.650Z,-5.07
2022-12-01T00:14:55.311Z,-5.04
2022-12-01T00:19:59.857Z,-5.06
2022-12-01T00:25:02.973Z,-5.27
2022-12-01T00:30:08.699Z,-5.33
2022-12-01T00:35:12.410Z,-5.09
2022-12-01T00:40:15.389Z,-5.11
2022-12-01T00:45:18.531Z,-5.17
2022-12-01T00:50:21.569Z,-5.25
2022-12-01T00:55:24.501Z,-5.25
2022-12-01T01:00:27.597Z,-5.21
2022-12-01T01:05:31.565Z,-5.23
2022-12-01T01:10:34.668Z,-5.32
2022-12-01T01:15:37.858Z,-5.28
2022-12-01T01:20:40.811Z,-5.27
2022-12-01T01:25:43.623Z,-5.28
2022-12-01T01:30:47.348Z,-5.27
2022-12-01T01:35:50.377Z,-5.39
2022-12-01T01:40:53.293Z,-5.34
2022-12-01T01:45:56.416Z,-5.28
2022-12-01T01:50:59.576Z,-5.14
2022-12-01T01:56:03.695Z,-5.19
2022-12-01T02:01:07.443Z,-5.30
2022-12-01T02:06:11.661Z,-5.17
2022-12-01T02:11:33.754Z,-5.60
2022-12-01T02:16:51.159Z,-5.40
2022-12-01T02:22:05.996Z,-5.22
2022-12-01T02:27:21.263Z,-5.42
2022-12-01T02:32:33.656Z,-5.42
2022-12-01T02:37:58.413Z,-5.32
2022-12-01T02:43:08.229Z,-5.43
2022-12-01T02:48:39.292Z,-5.43
2022-12-01T02:53:42.665Z,-5.34
2022-12-01T02:58:45.527Z,-5.71
2022-12-01T03:04:09.456Z,-5.38
2022-12-01T03:09:25.101Z,-5.47
2022-12-01T03:15:01.904Z,-5.39
2022-12-01T03:20:25.260Z,-5.80
2022-12-01T03:25:28.738Z,-5.61
2022-12-01T03:30:36.022Z,-5.73
2022-12-01T03:35:50.356Z,-5.56
2022-12-01T03:41:01.902Z,-5.73
2022-12-01T03:46:14.051Z,-5.78
2022-12-01T03:51:27.255Z,-6.12
2022-12-01T03:56:36.836Z,-6.03
2022-12-01T04:01:40.106Z,-6.01
2022-12-01T04:06:46.933Z,-5.70
2022-12-01T04:12:08.487Z,-6.00
2022-12-01T04:17:11.535Z,-6.38
2022-12-01T04:22:14.466Z,-5.82
2022-12-01T04:27:17.578Z,-5.84
2022-12-01T04:32:20.772Z,-5.82
2022-12-01T04:37:23.758Z,-5.60
2022-12-01T04:42:26.795Z,-5.66
2022-12-01T04:47:29.735Z,-5.58
2022-12-01T04:52:35.407Z,-5.49
2022-12-01T04:57:39.779Z,-5.45
2022-12-01T05:02:43.925Z,-5.65
2022-12-01T05:07:46.957Z,-5.27
2022-12-01T05:12:50.182Z,-5.08
2022-12-01T05:17:53.132Z,-4.95
2022-12-01T05:23:08.263Z,-4.91
2022-12-01T05:28:13.936Z,-4.81
2022-12-01T05:33:17.692Z,-4.55
2022-12-01T05:38:20.914Z,-4.61
2022-12-01T05:43:28.934Z,-4.21
2022-12-01T05:48:32.747Z,-3.98
2022-12-01T05:53:35.683Z,-3.81
2022-12-01T05:58:38.631Z,-3.53
2022-12-01T06:03:43.646Z,-3.53
2022-12-01T06:08:46.689Z,-3.07
2022-12-01T06:13:49.878Z,-3.06
2022-12-01T06:18:52.773Z,-2.24
2022-12-01T06:23:55.733Z,-1.98
2022-12-01T06:28:58.687Z,-1.44
2022-12-01T06:34:01.571Z,-1.00
2022-12-01T06:39:10.336Z,-0.61
2022-12-01T06:44:13.595Z,-0.12
2022-12-01T06:49:16.770Z,0.36
2022-12-01T06:54:19.780Z,1.02
2022-12-01T06:59:22.765Z,4.69
2022-12-01T07:04:26.221Z,7.43
2022-12-01T07:09:29.359Z,9.96
2022-12-01T07:14:32.580Z,9.86
2022-12-01T07:19:36.137Z,11.74
2022-12-01T07:24:39.047Z,13.18
2022-12-01T07:29:41.981Z,13.66
2022-12-01T07:34:44.998Z,14.22
2022-12-01T07:39:48.218Z,15.44
2022-12-01T07:44:51.371Z,16.84
2022-12-01T07:49:54.245Z,17.25
2022-12-01T07:54:57.159Z,18.65
2022-12-01T08:00:00.106Z,18.87
2022-12-01T08:05:03.126Z,18.68
2022-12-01T08:10:06.482Z,19.78
2022-12-01T08:15:10.208Z,19.75
2022-12-01T08:20:13.361Z,20.90
2022-12-01T08:25:16.310Z,21.74
2022-12-01T08:30:19.398Z,20.85
2022-12-01T08:35:22.397Z,22.13
2022-12-01T08:40:25.292Z,22.34
2022-12-01T08:45:28.272Z,22.81
2022-12-01T08:50:31.292Z,24.16
2022-12-01T08:55:34.236Z,23.56
2022-12-01T09:00:37.289Z,23.78
2022-12-01T09:05:40.692Z,24.01
2022-12-01T09:10:52.397Z,24.33
2022-12-01T09:16:00.294Z,23.12
2022-12-01T09:21:20.436Z,23.67
2022-12-01T09:26:23.690Z,25.11
2022-12-01T09:31:27.266Z,23.39
2022-12-01T09:36:32.613Z,23.98
2022-12-01T09:41:45.037Z,23.01
2022-12-01T09:46:53.452Z,22.46
2022-12-01T09:51:56.387Z,21.75
2022-12-01T09:57:00.550Z,23.18
2022-12-01T10:02:11.815Z,23.09
2022-12-01T10:07:27.658Z,22.01
2022-12-01T10:12:36.704Z,19.27
2022-12-01T10:18:18.012Z,18.36
2022-12-01T10:23:44.670Z,19.69
2022-12-01T10:28:58.395Z,17.50
2022-12-01T10:34:08.382Z,16.60
2022-12-01T10:39:29.492Z,21.00
2022-12-01T10:44:33.172Z,23.28
2022-12-01T10:49:41.172Z,23.28
2022-12-01T10:54:44.137Z,24.15
2022-12-01T10:59:59.210Z,23.90
2022-12-01T11:05:07.579Z,23.86
2022-12-01T11:10:18.985Z,23.39
2022-12-01T11:15:29.232Z,22.91
2022-12-01T11:20:38.753Z,22.54
2022-12-01T11:25:41.733Z,21.31
2022-12-01T11:30:44.753Z,19.64
2022-12-01T11:35:49.932Z,21.47
2022-12-01T11:40:55.618Z,20.97
2022-12-01T11:46:02.796Z,19.95
2022-12-01T11:51:27.365Z,20.10
2022-12-01T11:56:31.604Z,18.26
2022-12-01T12:01:49.288Z,16.01
2022-12-01T12:07:02.994Z,14.75
2022-12-01T12:12:20.984Z,13.91
2022-12-01T12:17:35.788Z,14.28
2022-12-01T12:22:54.981Z,13.59
2022-12-01T12:28:33.443Z,10.15
2022-12-01T12:34:13.654Z,7.04
2022-12-01T12:39:19.174Z,5.46
2022-12-01T12:44:42.582Z,5.24
2022-12-01T12:49:57.706Z,5.36
2022-12-01T12:55:12.143Z,4.56
2022-12-01T13:00:19.554Z,3.77
2022-12-01T13:05:45.901Z,3.35
2022-12-01T13:11:03.371Z,2.69
2022-12-01T13:16:13.567Z,2.49
2022-12-01T13:21:21.706Z,2.46
2022-12-01T13:26:25.151Z,2.17
2022-12-01T13:31:28.319Z,2.07
2022-12-01T13:36:49.472Z,1.63
2022-12-01T13:42:06.353Z,1.57
2022-12-01T13:47:12.449Z,1.15
2022-12-01T13:52:27.054Z,1.21
2022-12-01T13:57:33.369Z,0.98
2022-12-01T14:02:37.039Z,0.73
2022-12-01T14:07:40.812Z,0.50
2022-12-01T14:12:46.456Z,0.38
2022-12-01T14:18:00.906Z,0.38
2022-12-01T14:23:24.591Z,0.13
2022-12-01T14:28:55.679Z,-0.14
2022-12-01T14:34:03.034Z,-0.24
2022-12-01T14:39:24.324Z,0.01
2022-12-01T14:44:44.574Z,0.01
2022-12-01T14:49:53.941Z,-0.30
2022-12-01T14:55:02.304Z,-0.28
2022-12-01T15:00:15.234Z,-0.60
2022-12-01T15:05:20.730Z,-0.42
2022-12-01T15:10:35.468Z,-0.51
2022-12-01T15:15:38.242Z,-0.67
2022-12-01T15:20:46.340Z,-0.74
2022-12-01T15:25:50.819Z,-0.70
2022-12-01T15:30:55.579Z,-0.66
2022-12-01T15:36:00.126Z,-0.71
2022-12-01T15:46:34.683Z,-0.91
2022-12-01T15:51:37.791Z,-1.22
2022-12-01T15:56:42.090Z,-1.08
2022-12-01T16:01:45.812Z,-1.23
2022-12-01T16:07:08.600Z,-1.07
2022-12-01T16:12:17.933Z,-1.23
2022-12-01T16:17:21.588Z,-1.55
2022-12-01T16:22:25.426Z,-1.71
2022-12-01T16:27:30.638Z,-1.56
2022-12-01T16:32:41.043Z,-1.46
2022-12-01T16:37:44.083Z,-1.55
2022-12-01T16:42:48.796Z,-1.70
2022-12-01T16:47:51.680Z,-1.70
2022-12-01T16:52:54.632Z,-1.69
2022-12-01T16:57:57.923Z,-1.88
2022-12-01T17:03:01.547Z,-2.11
2022-12-01T17:08:04.905Z,-2.09
2022-12-01T17:13:07.880Z,-2.42
2022-12-01T17:18:11.711Z,-2.58
2022-12-01T17:23:14.645Z,-2.42
2022-12-01T17:28:18.142Z,-2.68
2022-12-01T17:33:21.357Z,-2.78
2022-12-01T17:38:24.416Z,-2.98
2022-12-01T17:43:27.316Z,-2.89
2022-12-01T17:48:30.446Z,-2.75
2022-12-01T17:53:33.728Z,-2.91
2022-12-01T17:58:37.385Z,-3.18
2022-12-01T18:03:40.307Z,-3.13
2022-12-01T18:08:43.755Z,-3.10
2022-12-01T18:13:49.643Z,-3.20
2022-12-01T18:18:53.851Z,-3.43
2022-12-01T18:23:59.782Z,-3.50
2022-12-01T18:29:06.485Z,-3.22
2022-12-01T18:34:11.235Z,-3.30
2022-12-01T18:39:14.369Z,-3.25
2022-12-01T18:44:17.508Z,-3.38
2022-12-01T18:49:20.619Z,-3.22
2022-12-01T18:54:23.524Z,-3.35
2022-12-01T18:59:27.254Z,-3.39
2022-12-01T19:04:30.876Z,-3.55
2022-12-01T19:09:34.022Z,-3.53
2022-12-01T19:14:37.043Z,-3.36
2022-12-01T19:19:40.057Z,-3.61
2022-12-01T19:24:49.876Z,-3.63
2022-12-01T19:29:54.230Z,-3.66
2022-12-01T19:34:57.410Z,-3.59
2022-12-01T19:40:00.398Z,-3.61
2022-12-01T19:45:04.134Z,-3.64
2022-12-01T19:50:07.896Z,-3.62
2022-12-01T19:55:11.107Z,-3.74
2022-12-01T20:00:14.288Z,-3.83
2022-12-01T20:05:17.290Z,-3.81
2022-12-01T20:10:20.727Z,-3.77
2022-12-01T20:15:23.650Z,-3.93
2022-12-01T20:20:26.763Z,-4.02
2022-12-01T20:25:29.712Z,-3.85
2022-12-01T20:30:32.559Z,-3.72
2022-12-01T20:35:35.800Z,-3.93
2022-12-01T20:40:38.698Z,-3.76
2022-12-01T20:45:43.019Z,-4.02
2022-12-01T20:50:46.020Z,-3.83
2022-12-01T20:55:49.115Z,-4.10
2022-12-01T21:00:52.041Z,-3.96
2022-12-01T21:05:55.028Z,-4.01
2022-12-01T21:10:58.388Z,-3.96
2022-12-01T21:16:06.939Z,-4.01
2022-12-01T21:21:22.740Z,-4.19
2022-12-01T21:26:26.184Z,-4.06
2022-12-01T21:31:29.422Z,-4.21
2022-12-01T21:36:32.575Z,-4.32
2022-12-01T21:41:35.735Z,-4.11
2022-12-01T21:46:41.660Z,-4.11
2022-12-01T21:51:45.068Z,-3.97
2022-12-01T21:56:55.697Z,-4.23
2022-12-01T22:01:58.731Z,-4.27
2022-12-01T22:07:01.624Z,-4.12
2022-12-01T22:12:07.642Z,-4.13
2022-12-01T22:17:10.526Z,-4.12
2022-12-01T22:22:15.951Z,-4.30
2022-12-01T22:27:38.456Z,-4.48
2022-12-01T22:32:59.801Z,-4.42
2022-12-01T22:38:09.035Z,-4.53
2022-12-01T22:43:18.040Z,-4.65
2022-12-01T22:48:44.250Z,-4.29
2022-12-01T22:53:47.662Z,-4.44
2022-12-01T22:58:50.864Z,-4.58
2022-12-01T23:04:00.268Z,-4.41
2022-12-01T23:09:03.899Z,-4.48
2022-12-01T23:14:13.990Z,-4.33
2022-12-01T23:19:17.137Z,-4.69
2022-12-01T23:24:20.135Z,-4.53
2022-12-01T23:29:23.562Z,-4.48
2022-12-01T23:34:26.641Z,-4.67
2022-12-01T23:39:34.738Z,-4.68
2022-12-01T23:44:42.698Z,-4.81
2022-12-01T23:49:47.133Z,-4.82
2022-12-01T23:54:50.411Z,-4.76
